Clayton, Washington
Current Conditions -  °F | °C
As of 6:53 AM on Saturday 25 Oct 2014 (Local Time) from KDEW Reporting Station
Clear Clear  
Wind Chill: 42°   Ceiling: Unl
Heat Index: 48°   Visibility: 10mi
Dew Point: 39°   Wind: 14mph
Humidity: 71%   Direction: 30°NNE
Pressure: 29.75"   Gusts: NA
Location:  47.99°N, 117.56°W
Report Text: KDEW 251353Z AUTO 03012KT 10SM CLR 09/04 A2975 RMK AO2 SLP078 T00890039
Loading
Personal Weather Stations






























Interactive Weather Map New forecast layout! Learn more

10-Day Weather Forecast

Advertisements
Track Severe Weather on mobile